sensor_id;sensor_type;location;lat;lon;timestamp;P1;durP1;ratioP1;P2;durP2;ratioP2
63276;SDS011;49403;51.046;13.780;2023-06-04T00:09:14;10.48;;;6.40;;
63276;SDS011;49403;51.046;13.780;2023-06-04T00:09:49;9.82;;;6.15;;
63276;SDS011;49403;51.046;13.780;2023-06-04T00:10:26;9.85;;;6.05;;
63276;SDS011;49403;51.046;13.780;2023-06-04T00:11:02;11.10;;;6.00;;
63276;SDS011;49403;51.046;13.780;2023-06-04T00:11:38;9.80;;;5.78;;
63276;SDS011;49403;51.046;13.780;2023-06-04T00:12:15;13.50;;;6.22;;
63276;SDS011;49403;51.046;13.780;2023-06-04T00:12:53;7.88;;;5.63;;
63276;SDS011;49403;51.046;13.780;2023-06-04T00:13:30;10.15;;;5.90;;
63276;SDS011;49403;51.046;13.780;2023-06-04T00:14:04;11.63;;;6.05;;
63276;SDS011;49403;51.046;13.780;2023-06-04T00:14:39;7.90;;;5.55;;
63276;SDS011;49403;51.046;13.780;2023-06-04T00:15:14;8.52;;;5.50;;
63276;SDS011;49403;51.046;13.780;2023-06-04T00:15:51;7.55;;;5.63;;
63276;SDS011;49403;51.046;13.780;2023-06-04T00:16:28;8.43;;;5.60;;
63276;SDS011;49403;51.046;13.780;2023-06-04T00:17:05;9.98;;;5.85;;
63276;SDS011;49403;51.046;13.780;2023-06-04T00:17:41;12.35;;;5.40;;
63276;SDS011;49403;51.046;13.780;2023-06-04T00:18:21;9.10;;;5.30;;
63276;SDS011;49403;51.046;13.780;2023-06-04T00:18:56;7.60;;;5.03;;
63276;SDS011;49403;51.046;13.780;2023-06-04T00:19:32;9.07;;;5.20;;
63276;SDS011;49403;51.046;13.780;2023-06-04T00:20:10;7.80;;;5.10;;
63276;SDS011;49403;51.046;13.780;2023-06-04T00:21:18;6.65;;;5.30;;
63276;SDS011;49403;51.046;13.780;2023-06-04T00:21:52;7.95;;;5.28;;
63276;SDS011;49403;51.046;13.780;2023-06-04T00:22:27;6.88;;;5.13;;
63276;SDS011;49403;51.046;13.780;2023-06-04T00:23:00;8.68;;;5.30;;
63276;SDS011;49403;51.046;13.780;2023-06-04T00:23:38;8.13;;;5.13;;
63276;SDS011;49403;51.046;13.780;2023-06-04T00:24:09;7.13;;;4.65;;
63276;SDS011;49403;51.046;13.780;2023-06-04T00:24:44;7.72;;;4.70;;
63276;SDS011;49403;51.046;13.780;2023-06-04T00:25:18;8.48;;;4.97;;
63276;SDS011;49403;51.046;13.780;2023-06-04T00:25:52;7.75;;;4.88;;
63276;SDS011;49403;51.046;13.780;2023-06-04T00:26:27;6.10;;;4.70;;
63276;SDS011;49403;51.046;13.780;2023-06-04T00:27:02;7.00;;;5.00;;
63276;SDS011;49403;51.046;13.780;2023-06-04T00:27:36;7.57;;;4.93;;
63276;SDS011;49403;51.046;13.780;2023-06-04T00:28:10;9.00;;;4.78;;
63276;SDS011;49403;51.046;13.780;2023-06-04T00:28:45;6.72;;;4.80;;
63276;SDS011;49403;51.046;13.780;2023-06-04T00:29:25;13.10;;;5.03;;
63276;SDS011;49403;51.046;13.780;2023-06-04T00:30:04;6.30;;;4.65;;
63276;SDS011;49403;51.046;13.780;2023-06-04T00:30:45;6.40;;;4.60;;
63276;SDS011;49403;51.046;13.780;2023-06-04T00:31:19;7.20;;;4.90;;
63276;SDS011;49403;51.046;13.780;2023-06-04T00:31:54;8.13;;;5.00;;
63276;SDS011;49403;51.046;13.780;2023-06-04T00:32:25;10.77;;;5.00;;
63276;SDS011;49403;51.046;13.780;2023-06-04T00:32:58;6.38;;;4.60;;
63276;SDS011;49403;51.046;13.780;2023-06-04T00:33:35;8.57;;;4.90;;
63276;SDS011;49403;51.046;13.780;2023-06-04T00:34:06;7.95;;;4.80;;
63276;SDS011;49403;51.046;13.780;2023-06-04T00:34:41;10.43;;;4.82;;
63276;SDS011;49403;51.046;13.780;2023-06-04T00:35:15;7.97;;;4.93;;
63276;SDS011;49403;51.046;13.780;2023-06-04T00:35:50;9.25;;;4.82;;
63276;SDS011;49403;51.046;13.780;2023-06-04T00:36:22;8.82;;;4.93;;
63276;SDS011;49403;51.046;13.780;2023-06-04T00:36:57;6.20;;;4.57;;
63276;SDS011;49403;51.046;13.780;2023-06-04T00:37:37;7.00;;;4.97;;
63276;SDS011;49403;51.046;13.780;2023-06-04T00:38:12;8.57;;;4.65;;
63276;SDS011;49403;51.046;13.780;2023-06-04T00:38:51;11.32;;;4.70;;
63276;SDS011;49403;51.046;13.780;2023-06-04T00:39:31;7.07;;;4.70;;
63276;SDS011;49403;51.046;13.780;2023-06-04T00:40:06;9.73;;;4.93;;
63276;SDS011;49403;51.046;13.780;2023-06-04T00:40:41;6.30;;;4.55;;
63276;SDS011;49403;51.046;13.780;2023-06-04T00:41:16;8.50;;;4.88;;
63276;SDS011;49403;51.046;13.780;2023-06-04T00:41:48;8.48;;;4.63;;
63276;SDS011;49403;51.046;13.780;2023-06-04T00:42:22;8.73;;;4.72;;
63276;SDS011;49403;51.046;13.780;2023-06-04T00:42:57;7.85;;;4.80;;
63276;SDS011;49403;51.046;13.780;2023-06-04T00:43:32;7.75;;;4.53;;
63276;SDS011;49403;51.046;13.780;2023-06-04T00:44:06;7.88;;;4.72;;
63276;SDS011;49403;51.046;13.780;2023-06-04T00:44:41;8.88;;;4.75;;
63276;SDS011;49403;51.046;13.780;2023-06-04T00:45:20;8.95;;;4.85;;
63276;SDS011;49403;51.046;13.780;2023-06-04T00:45:56;7.60;;;4.70;;
63276;SDS011;49403;51.046;13.780;2023-06-04T00:46:30;6.85;;;4.68;;
63276;SDS011;49403;51.046;13.780;2023-06-04T00:47:03;7.03;;;4.70;;
63276;SDS011;49403;51.046;13.780;2023-06-04T00:47:38;11.38;;;5.13;;
63276;SDS011;49403;51.046;13.780;2023-06-04T00:48:09;8.30;;;4.85;;
63276;SDS011;49403;51.046;13.780;2023-06-04T00:48:44;7.00;;;4.90;;
63276;SDS011;49403;51.046;13.780;2023-06-04T00:49:19;5.80;;;4.50;;
63276;SDS011;49403;51.046;13.780;2023-06-04T00:49:50;5.57;;;4.53;;
63276;SDS011;49403;51.046;13.780;2023-06-04T00:50:29;8.98;;;4.50;;
63276;SDS011;49403;51.046;13.780;2023-06-04T00:51:03;6.90;;;4.60;;
63276;SDS011;49403;51.046;13.780;2023-06-04T00:51:35;5.65;;;4.25;;
63276;SDS011;49403;51.046;13.780;2023-06-04T00:52:09;8.27;;;4.78;;
63276;SDS011;49403;51.046;13.780;2023-06-04T00:52:44;5.20;;;4.00;;
63276;SDS011;49403;51.046;13.780;2023-06-04T00:53:21;8.90;;;4.72;;
63276;SDS011;49403;51.046;13.780;2023-06-04T00:53:59;9.65;;;4.60;;
63276;SDS011;49403;51.046;13.780;2023-06-04T00:54:38;6.55;;;4.60;;
63276;SDS011;49403;51.046;13.780;2023-06-04T00:55:10;8.73;;;4.70;;
63276;SDS011;49403;51.046;13.780;2023-06-04T00:55:48;8.38;;;4.50;;
63276;SDS011;49403;51.046;13.780;2023-06-04T00:56:19;6.47;;;4.50;;
63276;SDS011;49403;51.046;13.780;2023-06-04T00:56:51;7.47;;;4.75;;
63276;SDS011;49403;51.046;13.780;2023-06-04T00:57:25;6.72;;;4.68;;
63276;SDS011;49403;51.046;13.780;2023-06-04T00:57:57;7.07;;;4.55;;
63276;SDS011;49403;51.046;13.780;2023-06-04T00:58:33;7.30;;;4.63;;
63276;SDS011;49403;51.046;13.780;2023-06-04T00:59:08;9.15;;;4.72;;
63276;SDS011;49403;51.046;13.780;2023-06-04T00:59:43;6.07;;;4.70;;
63276;SDS011;49403;51.046;13.780;2023-06-04T01:00:17;6.03;;;4.30;;
63276;SDS011;49403;51.046;13.780;2023-06-04T01:00:49;7.82;;;4.40;;
63276;SDS011;49403;51.046;13.780;2023-06-04T01:01:39;7.40;;;4.40;;
63276;SDS011;49403;51.046;13.780;2023-06-04T01:02:21;7.57;;;4.53;;
63276;SDS011;49403;51.046;13.780;2023-06-04T01:02:55;8.20;;;4.70;;
63276;SDS011;49403;51.046;13.780;2023-06-04T01:03:37;6.03;;;4.28;;
63276;SDS011;49403;51.046;13.780;2023-06-04T01:04:20;8.60;;;4.60;;
63276;SDS011;49403;51.046;13.780;2023-06-04T01:05:24;8.00;;;4.30;;
63276;SDS011;49403;51.046;13.780;2023-06-04T01:06:11;8.32;;;4.40;;
63276;SDS011;49403;51.046;13.780;2023-06-04T01:06:51;8.25;;;4.60;;
63276;SDS011;49403;51.046;13.780;2023-06-04T01:07:26;7.25;;;4.40;;
63276;SDS011;49403;51.046;13.780;2023-06-04T01:08:00;7.50;;;4.47;;
63276;SDS011;49403;51.046;13.780;2023-06-04T01:08:32;6.45;;;4.55;;
63276;SDS011;49403;51.046;13.780;2023-06-04T01:09:04;9.80;;;4.65;;
63276;SDS011;49403;51.046;13.780;2023-06-04T01:09:36;10.43;;;4.72;;
63276;SDS011;49403;51.046;13.780;2023-06-04T01:10:10;6.78;;;4.50;;
63276;SDS011;49403;51.046;13.780;2023-06-04T01:10:54;7.10;;;4.80;;
63276;SDS011;49403;51.046;13.780;2023-06-04T01:11:32;8.02;;;4.70;;
63276;SDS011;49403;51.046;13.780;2023-06-04T01:12:05;6.47;;;4.60;;
63276;SDS011;49403;51.046;13.780;2023-06-04T01:12:40;8.95;;;4.72;;
63276;SDS011;49403;51.046;13.780;2023-06-04T01:13:15;6.07;;;4.28;;
63276;SDS011;49403;51.046;13.780;2023-06-04T01:13:46;7.88;;;4.70;;
63276;SDS011;49403;51.046;13.780;2023-06-04T01:14:17;7.18;;;4.55;;
63276;SDS011;49403;51.046;13.780;2023-06-04T01:14:49;7.20;;;4.60;;
63276;SDS011;49403;51.046;13.780;2023-06-04T01:15:24;6.50;;;4.30;;
63276;SDS011;49403;51.046;13.780;2023-06-04T01:15:58;5.97;;;4.25;;
63276;SDS011;49403;51.046;13.780;2023-06-04T01:16:33;7.45;;;4.65;;
63276;SDS011;49403;51.046;13.780;2023-06-04T01:17:20;6.60;;;4.30;;
63276;SDS011;49403;51.046;13.780;2023-06-04T01:18:07;7.97;;;4.55;;
63276;SDS011;49403;51.046;13.780;2023-06-04T01:18:39;7.80;;;4.50;;
63276;SDS011;49403;51.046;13.780;2023-06-04T01:19:25;6.78;;;4.47;;
63276;SDS011;49403;51.046;13.780;2023-06-04T01:21:06;8.25;;;4.30;;
63276;SDS011;49403;51.046;13.780;2023-06-04T01:21:39;5.78;;;4.22;;
63276;SDS011;49403;51.046;13.780;2023-06-04T01:22:24;7.22;;;4.75;;
63276;SDS011;49403;51.046;13.780;2023-06-04T01:23:05;6.50;;;4.25;;
63276;SDS011;49403;51.046;13.780;2023-06-04T01:23:46;7.50;;;4.32;;
63276;SDS011;49403;51.046;13.780;2023-06-04T01:24:31;7.78;;;4.15;;
63276;SDS011;49403;51.046;13.780;2023-06-04T01:25:15;6.93;;;4.22;;
63276;SDS011;49403;51.046;13.780;2023-06-04T01:26:06;10.75;;;4.60;;
63276;SDS011;49403;51.046;13.780;2023-06-04T01:26:39;8.07;;;4.47;;
63276;SDS011;49403;51.046;13.780;2023-06-04T01:27:11;7.28;;;4.40;;
63276;SDS011;49403;51.046;13.780;2023-06-04T01:27:42;6.57;;;4.18;;
63276;SDS011;49403;51.046;13.780;2023-06-04T01:28:15;8.65;;;4.30;;
63276;SDS011;49403;51.046;13.780;2023-06-04T01:28:47;7.25;;;4.30;;
63276;SDS011;49403;51.046;13.780;2023-06-04T01:29:18;7.28;;;4.25;;
63276;SDS011;49403;51.046;13.780;2023-06-04T01:29:50;8.75;;;4.43;;
63276;SDS011;49403;51.046;13.780;2023-06-04T01:30:23;6.72;;;4.15;;
63276;SDS011;49403;51.046;13.780;2023-06-04T01:31:04;6.38;;;4.47;;
63276;SDS011;49403;51.046;13.780;2023-06-04T01:31:37;5.57;;;4.30;;
63276;SDS011;49403;51.046;13.780;2023-06-04T01:32:10;9.27;;;4.60;;
63276;SDS011;49403;51.046;13.780;2023-06-04T01:32:42;7.90;;;4.10;;
63276;SDS011;49403;51.046;13.780;2023-06-04T01:33:15;7.38;;;4.10;;
63276;SDS011;49403;51.046;13.780;2023-06-04T01:33:47;9.88;;;4.65;;
63276;SDS011;49403;51.046;13.780;2023-06-04T01:34:23;7.65;;;4.05;;
63276;SDS011;49403;51.046;13.780;2023-06-04T01:34:54;16.58;;;4.30;;
63276;SDS011;49403;51.046;13.780;2023-06-04T01:35:26;7.90;;;4.20;;
63276;SDS011;49403;51.046;13.780;2023-06-04T01:35:58;7.85;;;4.30;;
63276;SDS011;49403;51.046;13.780;2023-06-04T01:36:31;7.80;;;4.50;;
63276;SDS011;49403;51.046;13.780;2023-06-04T01:37:02;5.95;;;4.28;;
63276;SDS011;49403;51.046;13.780;2023-06-04T01:37:34;7.35;;;4.43;;
63276;SDS011;49403;51.046;13.780;2023-06-04T01:38:06;8.23;;;4.53;;
63276;SDS011;49403;51.046;13.780;2023-06-04T01:38:38;7.45;;;4.40;;
63276;SDS011;49403;51.046;13.780;2023-06-04T01:39:10;5.78;;;4.40;;
63276;SDS011;49403;51.046;13.780;2023-06-04T01:39:41;8.00;;;4.40;;
63276;SDS011;49403;51.046;13.780;2023-06-04T01:40:13;7.75;;;4.78;;
63276;SDS011;49403;51.046;13.780;2023-06-04T01:40:45;8.55;;;4.55;;
63276;SDS011;49403;51.046;13.780;2023-06-04T01:41:16;7.07;;;4.63;;
63276;SDS011;49403;51.046;13.780;2023-06-04T01:41:48;8.15;;;4.63;;
63276;SDS011;49403;51.046;13.780;2023-06-04T01:42:19;11.30;;;4.72;;
63276;SDS011;49403;51.046;13.780;2023-06-04T01:42:50;6.13;;;4.50;;
63276;SDS011;49403;51.046;13.780;2023-06-04T01:43:22;6.07;;;4.50;;
63276;SDS011;49403;51.046;13.780;2023-06-04T01:43:53;8.52;;;4.32;;
63276;SDS011;49403;51.046;13.780;2023-06-04T01:44:25;6.90;;;4.70;;
63276;SDS011;49403;51.046;13.780;2023-06-04T01:44:56;7.38;;;4.60;;
63276;SDS011;49403;51.046;13.780;2023-06-04T01:45:28;7.30;;;4.80;;
63276;SDS011;49403;51.046;13.780;2023-06-04T01:46:00;7.53;;;4.60;;
63276;SDS011;49403;51.046;13.780;2023-06-04T01:46:32;6.28;;;4.82;;
63276;SDS011;49403;51.046;13.780;2023-06-04T01:47:03;6.80;;;4.60;;
63276;SDS011;49403;51.046;13.780;2023-06-04T01:47:35;6.38;;;4.38;;
63276;SDS011;49403;51.046;13.780;2023-06-04T01:48:07;6.95;;;4.82;;
63276;SDS011;49403;51.046;13.780;2023-06-04T01:48:38;8.98;;;4.80;;
63276;SDS011;49403;51.046;13.780;2023-06-04T01:49:10;8.00;;;4.80;;
63276;SDS011;49403;51.046;13.780;2023-06-04T01:49:42;7.72;;;4.60;;
63276;SDS011;49403;51.046;13.780;2023-06-04T01:50:13;7.75;;;4.80;;
63276;SDS011;49403;51.046;13.780;2023-06-04T01:50:45;7.10;;;4.60;;
63276;SDS011;49403;51.046;13.780;2023-06-04T01:51:16;7.47;;;4.50;;
63276;SDS011;49403;51.046;13.780;2023-06-04T01:51:48;7.18;;;4.43;;
63276;SDS011;49403;51.046;13.780;2023-06-04T01:52:19;6.57;;;4.72;;
63276;SDS011;49403;51.046;13.780;2023-06-04T01:52:51;8.13;;;4.47;;
63276;SDS011;49403;51.046;13.780;2023-06-04T01:53:22;8.43;;;4.70;;
63276;SDS011;49403;51.046;13.780;2023-06-04T01:53:54;7.07;;;4.53;;
63276;SDS011;49403;51.046;13.780;2023-06-04T01:54:25;7.43;;;4.47;;
63276;SDS011;49403;51.046;13.780;2023-06-04T01:54:56;7.97;;;4.78;;
63276;SDS011;49403;51.046;13.780;2023-06-04T01:55:28;7.07;;;4.57;;
63276;SDS011;49403;51.046;13.780;2023-06-04T01:56:03;9.68;;;4.70;;
63276;SDS011;49403;51.046;13.780;2023-06-04T01:56:34;6.30;;;4.10;;
63276;SDS011;49403;51.046;13.780;2023-06-04T01:57:06;6.80;;;4.68;;
63276;SDS011;49403;51.046;13.780;2023-06-04T01:57:38;9.45;;;4.63;;
63276;SDS011;49403;51.046;13.780;2023-06-04T01:58:09;8.63;;;4.70;;
63276;SDS011;49403;51.046;13.780;2023-06-04T01:58:41;8.40;;;4.60;;
63276;SDS011;49403;51.046;13.780;2023-06-04T01:59:12;8.35;;;4.55;;
63276;SDS011;49403;51.046;13.780;2023-06-04T01:59:46;9.18;;;4.65;;
63276;SDS011;49403;51.046;13.780;2023-06-04T02:00:18;7.38;;;4.60;;
63276;SDS011;49403;51.046;13.780;2023-06-04T02:00:49;9.13;;;4.85;;
63276;SDS011;49403;51.046;13.780;2023-06-04T02:01:23;8.05;;;4.90;;
63276;SDS011;49403;51.046;13.780;2023-06-04T02:01:54;9.02;;;4.60;;
63276;SDS011;49403;51.046;13.780;2023-06-04T02:02:25;7.13;;;4.65;;
63276;SDS011;49403;51.046;13.780;2023-06-04T02:02:57;6.40;;;4.53;;
63276;SDS011;49403;51.046;13.780;2023-06-04T02:03:29;8.80;;;4.50;;
63276;SDS011;49403;51.046;13.780;2023-06-04T02:04:07;11.95;;;4.70;;
63276;SDS011;49403;51.046;13.780;2023-06-04T02:04:38;7.25;;;4.97;;
63276;SDS011;49403;51.046;13.780;2023-06-04T02:05:11;6.45;;;4.32;;
63276;SDS011;49403;51.046;13.780;2023-06-04T02:05:43;7.15;;;4.70;;
63276;SDS011;49403;51.046;13.780;2023-06-04T02:06:16;8.15;;;5.22;;
63276;SDS011;49403;51.046;13.780;2023-06-04T02:06:51;7.85;;;4.68;;
63276;SDS011;49403;51.046;13.780;2023-06-04T02:07:22;6.90;;;4.43;;
63276;SDS011;49403;51.046;13.780;2023-06-04T02:07:54;9.98;;;4.50;;
63276;SDS011;49403;51.046;13.780;2023-06-04T02:08:27;7.55;;;4.57;;
63276;SDS011;49403;51.046;13.780;2023-06-04T02:09:00;8.63;;;4.63;;
63276;SDS011;49403;51.046;13.780;2023-06-04T02:09:33;7.53;;;4.38;;
63276;SDS011;49403;51.046;13.780;2023-06-04T02:10:06;7.70;;;4.72;;
63276;SDS011;49403;51.046;13.780;2023-06-04T02:10:41;7.40;;;4.75;;
63276;SDS011;49403;51.046;13.780;2023-06-04T02:11:12;6.32;;;4.72;;
63276;SDS011;49403;51.046;13.780;2023-06-04T02:11:43;8.68;;;4.70;;
63276;SDS011;49403;51.046;13.780;2023-06-04T02:12:15;7.95;;;4.75;;
63276;SDS011;49403;51.046;13.780;2023-06-04T02:12:56;6.72;;;4.57;;
63276;SDS011;49403;51.046;13.780;2023-06-04T02:13:29;6.82;;;4.60;;
63276;SDS011;49403;51.046;13.780;2023-06-04T02:14:00;6.25;;;4.50;;
63276;SDS011;49403;51.046;13.780;2023-06-04T02:14:32;8.32;;;4.70;;
63276;SDS011;49403;51.046;13.780;2023-06-04T02:15:03;6.40;;;4.20;;
63276;SDS011;49403;51.046;13.780;2023-06-04T02:15:35;10.18;;;4.55;;
63276;SDS011;49403;51.046;13.780;2023-06-04T02:16:06;6.03;;;4.57;;
63276;SDS011;49403;51.046;13.780;2023-06-04T02:16:37;5.63;;;4.38;;
63276;SDS011;49403;51.046;13.780;2023-06-04T02:17:09;7.10;;;4.40;;
63276;SDS011;49403;51.046;13.780;2023-06-04T02:17:42;8.82;;;4.35;;
63276;SDS011;49403;51.046;13.780;2023-06-04T02:18:16;7.68;;;4.35;;
63276;SDS011;49403;51.046;13.780;2023-06-04T02:18:52;5.63;;;3.95;;
63276;SDS011;49403;51.046;13.780;2023-06-04T02:19:24;10.80;;;4.40;;
63276;SDS011;49403;51.046;13.780;2023-06-04T02:19:58;6.68;;;4.35;;
63276;SDS011;49403;51.046;13.780;2023-06-04T02:20:30;6.47;;;4.35;;
63276;SDS011;49403;51.046;13.780;2023-06-04T02:21:02;6.90;;;4.13;;
63276;SDS011;49403;51.046;13.780;2023-06-04T02:21:33;6.28;;;4.28;;
63276;SDS011;49403;51.046;13.780;2023-06-04T02:22:05;5.90;;;4.35;;
63276;SDS011;49403;51.046;13.780;2023-06-04T02:22:37;6.85;;;4.40;;
63276;SDS011;49403;51.046;13.780;2023-06-04T02:23:08;6.80;;;4.28;;
63276;SDS011;49403;51.046;13.780;2023-06-04T02:23:39;8.60;;;4.22;;
63276;SDS011;49403;51.046;13.780;2023-06-04T02:24:11;5.88;;;4.20;;
63276;SDS011;49403;51.046;13.780;2023-06-04T02:24:42;6.75;;;4.30;;
63276;SDS011;49403;51.046;13.780;2023-06-04T02:25:14;5.88;;;3.95;;
63276;SDS011;49403;51.046;13.780;2023-06-04T02:25:45;7.78;;;4.30;;
63276;SDS011;49403;51.046;13.780;2023-06-04T02:26:17;6.18;;;4.20;;
63276;SDS011;49403;51.046;13.780;2023-06-04T02:26:49;7.68;;;4.68;;
63276;SDS011;49403;51.046;13.780;2023-06-04T02:27:20;5.03;;;4.10;;
63276;SDS011;49403;51.046;13.780;2023-06-04T02:27:52;7.95;;;4.20;;
63276;SDS011;49403;51.046;13.780;2023-06-04T02:28:23;8.52;;;4.32;;
63276;SDS011;49403;51.046;13.780;2023-06-04T02:28:55;6.78;;;4.30;;
63276;SDS011;49403;51.046;13.780;2023-06-04T02:29:26;6.60;;;4.30;;
63276;SDS011;49403;51.046;13.780;2023-06-04T02:29:58;6.13;;;4.05;;
63276;SDS011;49403;51.046;13.780;2023-06-04T02:30:29;7.70;;;4.20;;
63276;SDS011;49403;51.046;13.780;2023-06-04T02:31:01;6.00;;;4.30;;
63276;SDS011;49403;51.046;13.780;2023-06-04T02:31:32;6.63;;;4.22;;
63276;SDS011;49403;51.046;13.780;2023-06-04T02:32:04;6.00;;;4.15;;
63276;SDS011;49403;51.046;13.780;2023-06-04T02:32:35;7.80;;;4.30;;
63276;SDS011;49403;51.046;13.780;2023-06-04T02:33:07;5.50;;;4.13;;
63276;SDS011;49403;51.046;13.780;2023-06-04T02:33:39;6.18;;;4.20;;
63276;SDS011;49403;51.046;13.780;2023-06-04T02:34:11;6.07;;;4.50;;
63276;SDS011;49403;51.046;13.780;2023-06-04T02:34:42;9.25;;;4.35;;
63276;SDS011;49403;51.046;13.780;2023-06-04T02:35:14;6.55;;;4.43;;
63276;SDS011;49403;51.046;13.780;2023-06-04T02:35:46;7.00;;;4.53;;
63276;SDS011;49403;51.046;13.780;2023-06-04T02:36:17;6.90;;;4.55;;
63276;SDS011;49403;51.046;13.780;2023-06-04T02:36:49;6.07;;;4.18;;
63276;SDS011;49403;51.046;13.780;2023-06-04T02:37:20;5.80;;;4.50;;
63276;SDS011;49403;51.046;13.780;2023-06-04T02:37:52;6.43;;;3.92;;
63276;SDS011;49403;51.046;13.780;2023-06-04T02:38:24;7.25;;;4.30;;
63276;SDS011;49403;51.046;13.780;2023-06-04T02:38:55;7.00;;;4.30;;
63276;SDS011;49403;51.046;13.780;2023-06-04T02:39:26;7.65;;;4.15;;
63276;SDS011;49403;51.046;13.780;2023-06-04T02:39:57;6.57;;;4.40;;
63276;SDS011;49403;51.046;13.780;2023-06-04T02:40:29;5.53;;;4.40;;
63276;SDS011;49403;51.046;13.780;2023-06-04T02:41:00;5.68;;;4.20;;
63276;SDS011;49403;51.046;13.780;2023-06-04T02:41:31;6.35;;;4.20;;
63276;SDS011;49403;51.046;13.780;2023-06-04T02:42:02;7.07;;;4.20;;
63276;SDS011;49403;51.046;13.780;2023-06-04T02:42:34;7.45;;;4.47;;
63276;SDS011;49403;51.046;13.780;2023-06-04T02:43:05;7.95;;;4.32;;
63276;SDS011;49403;51.046;13.780;2023-06-04T02:43:36;5.95;;;4.55;;
63276;SDS011;49403;51.046;13.780;2023-06-04T02:44:07;6.60;;;4.32;;
63276;SDS011;49403;51.046;13.780;2023-06-04T02:44:39;7.00;;;4.30;;
63276;SDS011;49403;51.046;13.780;2023-06-04T02:45:10;6.50;;;4.30;;
63276;SDS011;49403;51.046;13.780;2023-06-04T02:45:41;6.78;;;4.30;;
63276;SDS011;49403;51.046;13.780;2023-06-04T02:46:13;8.23;;;4.70;;
63276;SDS011;49403;51.046;13.780;2023-06-04T02:46:44;7.50;;;4.50;;
63276;SDS011;49403;51.046;13.780;2023-06-04T02:47:15;12.95;;;4.60;;
63276;SDS011;49403;51.046;13.780;2023-06-04T02:47:49;6.03;;;4.28;;
63276;SDS011;49403;51.046;13.780;2023-06-04T02:48:20;7.32;;;4.30;;
63276;SDS011;49403;51.046;13.780;2023-06-04T02:48:51;6.45;;;4.00;;
63276;SDS011;49403;51.046;13.780;2023-06-04T02:49:22;7.35;;;4.38;;
63276;SDS011;49403;51.046;13.780;2023-06-04T02:49:55;5.72;;;4.20;;
63276;SDS011;49403;51.046;13.780;2023-06-04T02:50:26;9.02;;;4.32;;
63276;SDS011;49403;51.046;13.780;2023-06-04T02:50:57;16.27;;;4.60;;
63276;SDS011;49403;51.046;13.780;2023-06-04T02:51:28;6.75;;;4.20;;
63276;SDS011;49403;51.046;13.780;2023-06-04T02:52:00;7.90;;;4.10;;
63276;SDS011;49403;51.046;13.780;2023-06-04T02:52:31;6.43;;;4.43;;
63276;SDS011;49403;51.046;13.780;2023-06-04T02:53:03;6.55;;;4.22;;
63276;SDS011;49403;51.046;13.780;2023-06-04T02:53:34;6.80;;;4.38;;
63276;SDS011;49403;51.046;13.780;2023-06-04T02:54:05;6.00;;;4.15;;
63276;SDS011;49403;51.046;13.780;2023-06-04T02:54:37;5.93;;;4.03;;
63276;SDS011;49403;51.046;13.780;2023-06-04T02:55:08;5.43;;;4.05;;
63276;SDS011;49403;51.046;13.780;2023-06-04T02:55:43;7.30;;;4.38;;
63276;SDS011;49403;51.046;13.780;2023-06-04T02:56:14;7.43;;;4.28;;
63276;SDS011;49403;51.046;13.780;2023-06-04T02:56:46;7.93;;;4.53;;
63276;SDS011;49403;51.046;13.780;2023-06-04T02:57:19;5.88;;;4.30;;
63276;SDS011;49403;51.046;13.780;2023-06-04T02:57:50;11.18;;;4.60;;
63276;SDS011;49403;51.046;13.780;2023-06-04T02:58:25;9.95;;;4.35;;
63276;SDS011;49403;51.046;13.780;2023-06-04T02:58:56;7.88;;;4.13;;
63276;SDS011;49403;51.046;13.780;2023-06-04T02:59:27;7.18;;;4.20;;
63276;SDS011;49403;51.046;13.780;2023-06-04T02:59:59;5.63;;;4.13;;
63276;SDS011;49403;51.046;13.780;2023-06-04T03:00:30;6.55;;;4.47;;
63276;SDS011;49403;51.046;13.780;2023-06-04T03:01:02;7.50;;;4.10;;
63276;SDS011;49403;51.046;13.780;2023-06-04T03:01:34;7.40;;;3.95;;
63276;SDS011;49403;51.046;13.780;2023-06-04T03:02:05;4.85;;;4.00;;
63276;SDS011;49403;51.046;13.780;2023-06-04T03:02:36;5.70;;;4.03;;
63276;SDS011;49403;51.046;13.780;2023-06-04T03:03:08;10.95;;;3.92;;
63276;SDS011;49403;51.046;13.780;2023-06-04T03:03:40;7.07;;;4.20;;
63276;SDS011;49403;51.046;13.780;2023-06-04T03:04:11;5.65;;;3.95;;
63276;SDS011;49403;51.046;13.780;2023-06-04T03:04:44;5.13;;;4.00;;
63276;SDS011;49403;51.046;13.780;2023-06-04T03:05:18;5.82;;;3.90;;
63276;SDS011;49403;51.046;13.780;2023-06-04T03:05:49;6.10;;;3.85;;
63276;SDS011;49403;51.046;13.780;2023-06-04T03:06:21;6.75;;;3.80;;
63276;SDS011;49403;51.046;13.780;2023-06-04T03:06:52;5.68;;;4.10;;
63276;SDS011;49403;51.046;13.780;2023-06-04T03:07:28;11.15;;;4.35;;
63276;SDS011;49403;51.046;13.780;2023-06-04T03:08:00;6.25;;;3.80;;
63276;SDS011;49403;51.046;13.780;2023-06-04T03:08:32;7.25;;;4.10;;
63276;SDS011;49403;51.046;13.780;2023-06-04T03:09:03;7.78;;;4.35;;
63276;SDS011;49403;51.046;13.780;2023-06-04T03:09:35;5.80;;;3.90;;
63276;SDS011;49403;51.046;13.780;2023-06-04T03:10:06;5.60;;;3.88;;
63276;SDS011;49403;51.046;13.780;2023-06-04T03:10:38;5.28;;;3.70;;
63276;SDS011;49403;51.046;13.780;2023-06-04T03:11:10;7.10;;;3.97;;
63276;SDS011;49403;51.046;13.780;2023-06-04T03:11:41;4.65;;;3.80;;
63276;SDS011;49403;51.046;13.780;2023-06-04T03:12:12;6.72;;;3.85;;
63276;SDS011;49403;51.046;13.780;2023-06-04T03:12:43;5.63;;;4.05;;
63276;SDS011;49403;51.046;13.780;2023-06-04T03:13:15;6.55;;;3.85;;
63276;SDS011;49403;51.046;13.780;2023-06-04T03:13:46;4.95;;;3.53;;
63276;SDS011;49403;51.046;13.780;2023-06-04T03:14:18;6.78;;;3.78;;
63276;SDS011;49403;51.046;13.780;2023-06-04T03:14:49;5.65;;;3.70;;
63276;SDS011;49403;51.046;13.780;2023-06-04T03:15:20;5.55;;;3.70;;
63276;SDS011;49403;51.046;13.780;2023-06-04T03:15:51;8.93;;;3.75;;
63276;SDS011;49403;51.046;13.780;2023-06-04T03:16:25;5.40;;;3.63;;
63276;SDS011;49403;51.046;13.780;2023-06-04T03:16:56;5.10;;;3.70;;
63276;SDS011;49403;51.046;13.780;2023-06-04T03:17:31;4.85;;;3.90;;
63276;SDS011;49403;51.046;13.780;2023-06-04T03:18:02;5.85;;;3.65;;
63276;SDS011;49403;51.046;13.780;2023-06-04T03:18:35;9.88;;;3.53;;
63276;SDS011;49403;51.046;13.780;2023-06-04T03:19:07;4.82;;;3.60;;
63276;SDS011;49403;51.046;13.780;2023-06-04T03:19:39;7.57;;;3.80;;
63276;SDS011;49403;51.046;13.780;2023-06-04T03:20:11;6.82;;;3.80;;
63276;SDS011;49403;51.046;13.780;2023-06-04T03:20:42;9.07;;;3.53;;
63276;SDS011;49403;51.046;13.780;2023-06-04T03:21:14;5.60;;;3.90;;
63276;SDS011;49403;51.046;13.780;2023-06-04T03:21:45;6.90;;;3.92;;
63276;SDS011;49403;51.046;13.780;2023-06-04T03:22:16;5.97;;;3.55;;
63276;SDS011;49403;51.046;13.780;2023-06-04T03:22:48;5.18;;;3.80;;
63276;SDS011;49403;51.046;13.780;2023-06-04T03:23:20;7.13;;;3.85;;
63276;SDS011;49403;51.046;13.780;2023-06-04T03:23:51;4.53;;;3.50;;
63276;SDS011;49403;51.046;13.780;2023-06-04T03:24:22;5.30;;;3.60;;
63276;SDS011;49403;51.046;13.780;2023-06-04T03:24:54;5.75;;;3.80;;
63276;SDS011;49403;51.046;13.780;2023-06-04T03:25:25;7.25;;;3.90;;
63276;SDS011;49403;51.046;13.780;2023-06-04T03:25:56;5.47;;;3.72;;
63276;SDS011;49403;51.046;13.780;2023-06-04T03:26:27;4.75;;;3.70;;
63276;SDS011;49403;51.046;13.780;2023-06-04T03:26:58;5.65;;;3.75;;
63276;SDS011;49403;51.046;13.780;2023-06-04T03:27:30;5.68;;;4.00;;
63276;SDS011;49403;51.046;13.780;2023-06-04T03:28:02;5.22;;;3.95;;
63276;SDS011;49403;51.046;13.780;2023-06-04T03:28:34;8.98;;;3.75;;
63276;SDS011;49403;51.046;13.780;2023-06-04T03:29:05;5.38;;;3.70;;